Time;durP1;ratioP1;P1;durP2;ratioP2;P2;SDS_P1;SDS_P2;PMS_P1;PMS_P2;Temp;Humidity;BMP_temperature;BMP_pressure;BME280_temperature;BME280_humidity;BME280_pressure;Samples;Min_cycle;Max_cycle;Signal;HPM_P1;HPM_P2
2022/12/15 00:39:36;;;;;;;16.20;8.10;;;-7.60;99.90;;;;;;5052318;28;20906;-90
2022/12/15 00:42:02;;;;;;;14.30;7.63;;;-7.50;99.90;;;;;;5034304;28;20408;-90
2022/12/15 00:44:28;;;;;;;18.87;8.23;;;-7.50;99.90;;;;;;5051794;28;20184;-90
2022/12/15 00:46:53;;;;;;;16.50;8.73;;;-7.40;99.90;;;;;;5052135;28;20209;-90
2022/12/15 01:22:30;;;;;;;13.87;7.37;;;-7.60;99.90;;;;;;5052099;28;20404;-89
2022/12/15 01:24:56;;;;;;;14.90;7.70;;;-7.50;99.90;;;;;;5034028;28;20412;-89
2022/12/15 01:27:21;;;;;;;15.50;8.73;;;-7.40;99.90;;;;;;5051787;28;20679;-89
2022/12/15 01:29:47;;;;;;;14.07;8.20;;;-7.50;99.90;;;;;;5033933;28;20201;-89
2022/12/15 01:32:12;;;;;;;13.07;7.30;;;-7.50;99.90;;;;;;5034237;28;20174;-86
2022/12/15 01:34:38;;;;;;;12.90;7.57;;;-7.60;99.90;;;;;;5033919;28;20170;-89
2022/12/15 01:37:04;;;;;;;14.60;8.13;;;-7.60;99.90;;;;;;5034059;28;20204;-89
2022/12/15 01:40:43;;;;;;;14.87;8.00;;;-7.50;99.90;;;;;;5033916;28;20189;-89
2022/12/15 01:42:15;;;;;;;15.13;8.07;;;-7.50;99.90;;;;;;5051393;28;20178;-89
2022/12/15 01:44:41;;;;;;;16.33;8.50;;;-7.50;99.90;;;;;;5033941;28;20776;-90
2022/12/15 01:47:12;;;;;;;15.43;7.87;;;-7.40;99.90;;;;;;5033621;28;20320;-89
2022/12/15 01:49:38;;;;;;;15.13;7.60;;;-7.40;99.90;;;;;;5033951;28;20275;-89
2022/12/15 01:52:06;;;;;;;13.13;7.97;;;-7.40;99.90;;;;;;5033900;28;20416;-89
2022/12/15 01:54:39;;;;;;;13.60;7.77;;;-7.40;99.90;;;;;;5033804;28;20412;-90
2022/12/15 01:57:08;;;;;;;17.63;8.23;;;-7.50;99.90;;;;;;5033921;28;20443;-90
2022/12/15 01:59:42;;;;;;;14.67;8.03;;;-7.60;99.90;;;;;;5051775;28;20789;-90
2022/12/15 02:02:09;;;;;;;15.30;8.27;;;-7.60;99.90;;;;;;5034463;28;20420;-90
2022/12/15 02:04:36;;;;;;;16.00;8.60;;;-7.70;99.90;;;;;;5037411;28;20412;-90
2022/12/15 02:07:02;;;;;;;16.33;8.10;;;-7.70;99.90;;;;;;5055132;28;20463;-90
2022/12/15 02:09:29;;;;;;;16.03;8.37;;;-7.70;99.90;;;;;;5037482;28;20459;-90
2022/12/15 02:12:08;;;;;;;16.23;8.80;;;-7.60;99.90;;;;;;5037209;28;20531;-90
2022/12/15 02:14:40;;;;;;;15.13;8.40;;;-7.60;99.90;;;;;;5037294;28;20474;-90
2022/12/15 02:17:23;;;;;;;14.03;7.60;;;-7.70;99.90;;;;;;5037047;28;20429;-90
2022/12/15 02:20:07;;;;;;;13.10;7.50;;;-7.60;99.90;;;;;;5054766;28;20412;-90
2022/12/15 02:23:22;;;;;;;15.77;7.60;;;-7.80;99.90;;;;;;5055121;28;20487;-90
2022/12/15 02:26:15;;;;;;;14.47;7.87;;;-7.80;99.90;;;;;;5019974;28;20448;-90
2022/12/15 02:28:56;;;;;;;16.30;7.73;;;-7.90;99.90;;;;;;5037042;28;20420;-90
2022/12/15 02:31:50;;;;;;;12.93;7.73;;;-7.90;99.90;;;;;;5037031;28;20990;-90
2022/12/15 02:34:34;;;;;;;13.40;7.50;;;-7.90;99.90;;;;;;5036901;28;20858;-90
2022/12/15 02:37:35;;;;;;;13.40;7.73;;;-8.00;99.90;;;;;;5036858;28;20432;-90
2022/12/15 02:40:02;;;;;;;12.53;7.00;;;-8.00;99.90;;;;;;5054773;28;20416;-90
2022/12/15 02:42:29;;;;;;;11.30;6.63;;;-8.00;99.90;;;;;;5036817;28;20416;-90
2022/12/15 02:45:01;;;;;;;11.30;6.33;;;-8.10;99.90;;;;;;5036559;28;20408;-90
2022/12/15 02:47:58;;;;;;;12.30;6.87;;;-8.10;99.90;;;;;;5054631;28;20419;-90
2022/12/15 02:50:38;;;;;;;12.80;6.93;;;-8.10;99.90;;;;;;5036776;28;20480;-90
2022/12/15 02:53:34;;;;;;;12.27;6.93;;;-8.20;99.90;;;;;;5036491;28;20444;-89
2022/12/15 02:56:05;;;;;;;12.13;6.33;;;-8.20;99.90;;;;;;5036649;28;20867;-90
2022/12/15 02:58:43;;;;;;;12.50;6.50;;;-8.20;99.90;;;;;;5036361;28;20408;-90
2022/12/15 03:01:31;;;;;;;9.47;5.70;;;-8.30;99.90;;;;;;5036447;28;20422;-90
2022/12/15 03:03:59;;;;;;;10.17;5.67;;;-8.30;99.90;;;;;;5036085;28;20425;-90
2022/12/15 03:06:26;;;;;;;8.27;5.20;;;-8.40;99.90;;;;;;5036067;28;20466;-89
2022/12/15 03:08:51;;;;;;;10.43;5.83;;;-8.50;99.90;;;;;;5054064;28;20417;-90
2022/12/15 03:11:17;;;;;;;9.57;5.30;;;-8.60;99.90;;;;;;5036104;28;20470;-90
2022/12/15 03:13:43;;;;;;;9.13;5.30;;;-8.50;99.90;;;;;;5035546;28;20299;-90
2022/12/15 03:16:08;;;;;;;11.37;6.67;;;-8.40;99.90;;;;;;5053351;28;20233;-90
2022/12/15 03:18:34;;;;;;;10.37;6.10;;;-8.50;99.90;;;;;;5035938;28;20178;-90
2022/12/15 03:21:00;;;;;;;11.13;5.97;;;-8.40;99.90;;;;;;5053778;28;20182;-89
2022/12/15 03:23:25;;;;;;;9.40;5.53;;;-8.40;99.90;;;;;;5035701;28;20201;-89
2022/12/15 03:25:51;;;;;;;10.30;5.77;;;-8.40;99.90;;;;;;5053524;28;20611;-89
2022/12/15 03:28:17;;;;;;;10.43;6.00;;;-8.40;99.90;;;;;;5035965;28;20173;-89
2022/12/15 03:30:42;;;;;;;9.17;5.77;;;-8.40;99.90;;;;;;5035560;28;20190;-90
2022/12/15 03:33:08;;;;;;;12.87;6.70;;;-8.40;99.90;;;;;;5035598;28;20173;-90
2022/12/15 03:35:34;;;;;;;9.40;5.13;;;-8.50;99.90;;;;;;5035469;28;20190;-90
2022/12/15 03:37:59;;;;;;;9.63;5.60;;;-8.50;99.90;;;;;;5053396;28;20299;-89
2022/12/15 03:40:25;;;;;;;9.60;5.83;;;-8.40;99.90;;;;;;5035531;28;20178;-90
2022/12/15 03:42:51;;;;;;;9.80;6.10;;;-8.50;99.90;;;;;;5053288;28;20238;-90
2022/12/15 03:45:22;;;;;;;10.57;5.80;;;-8.50;99.90;;;;;;5053042;28;20205;-90
2022/12/15 03:47:48;;;;;;;9.90;5.73;;;-8.40;99.90;;;;;;5035325;28;21032;-90
2022/12/15 03:50:19;;;;;;;10.97;5.93;;;-8.40;99.90;;;;;;5052950;28;20467;-90
2022/12/15 03:52:52;;;;;;;10.23;5.63;;;-8.50;99.90;;;;;;5035480;28;20416;-90
2022/12/15 03:55:18;;;;;;;11.77;6.53;;;-8.50;99.90;;;;;;5035170;28;20432;-90
2022/12/15 03:57:44;;;;;;;15.83;7.97;;;-8.50;99.90;;;;;;5035354;28;20416;-90
2022/12/15 04:00:13;;;;;;;12.90;6.83;;;-8.50;99.90;;;;;;5035309;28;20427;-90
2022/12/15 04:02:42;;;;;;;13.97;7.13;;;-8.60;99.90;;;;;;5052899;28;20181;-89
2022/12/15 04:05:16;;;;;;;13.67;7.57;;;-8.70;99.90;;;;;;5052990;28;20420;-90
2022/12/15 04:07:42;;;;;;;15.43;8.50;;;-8.70;99.90;;;;;;5035004;28;20452;-90
2022/12/15 04:10:08;;;;;;;13.63;7.70;;;-8.80;99.90;;;;;;5034962;28;20541;-90
2022/12/15 04:12:33;;;;;;;15.40;8.43;;;-8.90;99.90;;;;;;5052493;28;20178;-90
2022/12/15 04:14:59;;;;;;;13.07;7.53;;;-8.80;99.90;;;;;;5035204;28;20420;-89
2022/12/15 04:17:25;;;;;;;14.53;7.40;;;-8.80;99.90;;;;;;5052645;28;20177;-90
2022/12/15 04:20:09;;;;;;;16.87;7.73;;;-8.90;99.90;;;;;;5052383;28;20177;-90
2022/12/15 04:22:40;;;;;;;13.50;7.60;;;-8.90;99.90;;;;;;5034726;28;20182;-89
2022/12/15 05:33:49;;;;;;;11.23;5.90;;;-8.90;99.90;;;;;;5051703;28;20450;-89
2022/12/15 05:36:15;;;;;;;11.20;5.77;;;-8.90;99.90;;;;;;5033946;28;20431;-90
2022/12/15 05:38:40;;;;;;;12.73;6.03;;;-8.90;99.90;;;;;;5036976;28;20166;-89
2022/12/15 05:41:06;;;;;;;12.17;6.27;;;-8.80;99.90;;;;;;5037876;28;20199;-89
2022/12/15 05:43:32;;;;;;;12.70;6.40;;;-8.90;99.90;;;;;;5037741;28;20200;-89
2022/12/15 05:46:02;;;;;;;13.17;6.37;;;-8.90;99.90;;;;;;5037791;28;20203;-90
2022/12/15 05:48:28;;;;;;;13.63;6.30;;;-9.00;99.90;;;;;;5037476;28;20162;-90
2022/12/15 05:50:54;;;;;;;13.70;6.60;;;-9.10;99.90;;;;;;5055596;28;20818;-90
2022/12/15 05:53:19;;;;;;;11.50;5.60;;;-9.10;99.90;;;;;;5055158;28;20179;-89
2022/12/15 05:55:45;;;;;;;11.03;6.13;;;-9.10;99.90;;;;;;5037458;28;20193;-90
2022/12/15 05:58:10;;;;;;;10.87;6.33;;;-9.20;99.90;;;;;;5055440;28;20176;-90
2022/12/15 06:00:36;;;;;;;10.77;5.90;;;-9.20;99.90;;;;;;5055408;28;20181;-89
2022/12/15 06:03:02;;;;;;;12.53;6.77;;;-9.10;99.90;;;;;;5055326;28;20704;-90
2022/12/15 06:05:28;;;;;;;11.00;6.07;;;-9.00;99.90;;;;;;5054979;28;20676;-90
2022/12/15 06:07:53;;;;;;;11.27;6.43;;;-9.20;99.90;;;;;;5055037;28;20182;-87
2022/12/15 06:10:19;;;;;;;9.73;6.00;;;-9.20;99.90;;;;;;5054710;28;20219;-85
2022/12/15 06:12:45;;;;;;;11.40;6.47;;;-9.40;99.90;;;;;;5037164;28;20189;-85
2022/12/15 06:15:10;;;;;;;11.90;6.50;;;-9.30;99.90;;;;;;5037059;28;20170;-85
2022/12/15 06:17:36;;;;;;;13.07;6.30;;;-9.30;99.90;;;;;;5054938;28;20220;-86
2022/12/15 06:20:02;;;;;;;13.10;6.57;;;-9.40;99.90;;;;;;5036685;28;20181;-86
2022/12/15 06:22:28;;;;;;;13.87;7.30;;;-9.30;99.90;;;;;;5036581;28;20655;-86
2022/12/15 06:24:54;;;;;;;11.60;6.27;;;-9.30;99.90;;;;;;5054858;28;20528;-88
2022/12/15 06:27:19;;;;;;;11.60;5.93;;;-9.30;99.90;;;;;;5054576;28;20929;-85
2022/12/15 06:29:45;;;;;;;13.13;6.20;;;-9.30;99.90;;;;;;5036963;28;20207;-85
2022/12/15 06:32:10;;;;;;;10.90;6.50;;;-9.20;99.90;;;;;;5036658;28;20188;-85
2022/12/15 06:34:36;;;;;;;10.80;6.50;;;-9.40;99.90;;;;;;5054176;28;20177;-85
2022/12/15 06:37:01;;;;;;;11.97;6.03;;;-9.40;99.90;;;;;;5036781;28;20194;-86
2022/12/15 06:39:27;;;;;;;11.80;5.97;;;-9.40;99.90;;;;;;5036874;28;20177;-83
2022/12/15 06:41:53;;;;;;;15.10;6.57;;;-9.40;99.90;;;;;;5054356;28;20581;-87
2022/12/15 06:44:18;;;;;;;10.27;5.90;;;-9.40;99.90;;;;;;5054215;28;20185;-86
2022/12/15 06:46:45;;;;;;;13.37;6.70;;;-9.40;99.90;;;;;;5036420;28;20220;-85
2022/12/15 06:49:10;;;;;;;11.37;6.30;;;-9.50;99.90;;;;;;5035572;28;20181;-82
2022/12/15 06:51:36;;;;;;;13.23;6.97;;;-9.50;99.90;;;;;;5036514;28;20408;-86
2022/12/15 06:54:02;;;;;;;14.00;6.83;;;-9.60;99.90;;;;;;5036267;28;20197;-86
2022/12/15 06:56:35;;;;;;;12.33;6.30;;;-9.60;99.90;;;;;;5036412;28;20216;-86
2022/12/15 06:59:04;;;;;;;30.10;16.70;;;-9.70;99.90;;;;;;5054125;28;20179;-84
2022/12/15 07:01:30;;;;;;;12.00;7.47;;;-9.50;99.90;;;;;;5054188;28;20416;-85
2022/12/15 07:03:58;;;;;;;11.87;5.77;;;-7.70;99.90;;;;;;5054477;28;20442;-88
2022/12/15 07:06:24;;;;;;;11.57;6.33;;;-6.30;99.90;;;;;;5037232;28;20490;-88
2022/12/15 07:08:53;;;;;;;12.07;6.13;;;-5.50;99.90;;;;;;5051749;28;20439;-90
2022/12/15 07:11:20;;;;;;;11.93;6.53;;;-5.70;99.90;;;;;;5054184;28;20462;-88
2022/12/15 07:14:05;;;;;;;16.30;6.70;;;-6.90;99.90;;;;;;5055050;28;20751;-90
2022/12/15 07:16:32;;;;;;;11.43;6.50;;;-7.80;99.90;;;;;;5034085;28;20433;-91
2022/12/15 07:18:57;;;;;;;16.80;9.77;;;-8.40;99.90;;;;;;5037290;28;20447;-90
2022/12/15 07:21:23;;;;;;;33.10;16.37;;;-8.80;99.90;;;;;;5049062;28;20448;-88
2022/12/15 07:23:49;;;;;;;16.30;9.27;;;-9.10;99.90;;;;;;5035084;28;20539;-88
2022/12/15 07:26:14;;;;;;;15.70;7.93;;;-9.10;99.90;;;;;;5054345;28;20200;-90
2022/12/15 07:28:40;;;;;;;11.80;6.47;;;-9.10;99.90;;;;;;5053914;28;20181;-88
2022/12/15 07:31:10;;;;;;;12.43;6.20;;;-9.10;99.90;;;;;;5053485;28;20202;-90
2022/12/15 07:33:36;;;;;;;11.97;6.53;;;-9.10;99.90;;;;;;5035354;28;20408;-88
2022/12/15 07:36:03;;;;;;;10.93;6.03;;;-9.00;99.90;;;;;;5035324;28;20459;-86
2022/12/15 07:38:29;;;;;;;10.63;6.87;;;-8.90;99.90;;;;;;5035322;28;20768;-88
2022/12/15 07:40:59;;;;;;;11.20;6.57;;;-9.00;99.90;;;;;;5035599;28;20424;-85
2022/12/15 07:43:26;;;;;;;13.07;7.23;;;-9.20;99.90;;;;;;5053178;28;20412;-86
2022/12/15 07:45:52;;;;;;;17.47;9.87;;;-9.20;99.90;;;;;;5053117;28;20508;-85
2022/12/15 07:48:18;;;;;;;18.57;10.97;;;-9.30;99.90;;;;;;5035481;28;20520;-86
2022/12/15 07:50:44;;;;;;;15.03;8.33;;;-9.40;99.90;;;;;;5052937;28;20680;-85
2022/12/15 07:53:10;;;;;;;10.70;6.70;;;-9.30;99.90;;;;;;5034812;28;20506;-87
2022/12/15 07:55:35;;;;;;;10.50;7.10;;;-9.10;99.90;;;;;;5035282;28;20189;-85
2022/12/15 07:58:01;;;;;;;11.70;6.13;;;-9.10;99.90;;;;;;5035284;28;20178;-85
2022/12/15 08:00:27;;;;;;;14.13;7.27;;;-9.10;99.90;;;;;;5035272;28;20686;-85
2022/12/15 08:02:53;;;;;;;13.57;7.87;;;-9.30;99.90;;;;;;5035176;28;20219;-85
2022/12/15 08:05:18;;;;;;;14.43;8.10;;;-9.30;99.90;;;;;;5052942;28;20459;-85
2022/12/15 08:07:44;;;;;;;13.47;7.53;;;-9.20;99.90;;;;;;5052973;28;20184;-85
2022/12/15 08:10:09;;;;;;;13.77;7.63;;;-9.00;99.90;;;;;;5035123;28;20254;-85
2022/12/15 08:12:35;;;;;;;11.93;7.30;;;-9.10;99.90;;;;;;5035313;28;20177;-84
2022/12/15 08:15:01;;;;;;;12.53;6.10;;;-9.10;99.90;;;;;;5052940;28;20172;-84
2022/12/15 08:17:27;;;;;;;11.77;7.20;;;-9.00;99.90;;;;;;5035121;28;20954;-85
2022/12/15 08:19:52;;;;;;;14.20;8.30;;;-8.20;99.90;;;;;;5052949;28;20185;-84
2022/12/15 08:22:18;;;;;;;16.03;9.57;;;-8.00;99.90;;;;;;5052602;28;20177;-84
2022/12/15 08:24:44;;;;;;;15.00;8.30;;;-8.00;99.90;;;;;;5034729;28;20219;-86
2022/12/15 08:27:09;;;;;;;13.50;8.10;;;-8.10;99.90;;;;;;5051102;28;20205;-86
2022/12/15 08:29:35;;;;;;;13.00;7.40;;;-8.40;99.90;;;;;;5053573;28;20194;-86
2022/12/15 08:32:00;;;;;;;16.37;8.10;;;-8.40;99.90;;;;;;5035866;28;20296;-85
2022/12/15 08:34:26;;;;;;;12.33;7.50;;;-8.50;99.90;;;;;;5035220;28;20174;-86
2022/12/15 08:36:52;;;;;;;18.23;8.87;;;-8.50;99.90;;;;;;5052037;28;20193;-86
2022/12/15 08:39:18;;;;;;;14.10;7.43;;;-8.50;99.90;;;;;;5035113;28;20202;-86
2022/12/15 08:41:44;;;;;;;16.67;8.77;;;-8.40;99.90;;;;;;5034451;28;20416;-86
2022/12/15 08:44:10;;;;;;;19.20;9.00;;;-8.30;99.90;;;;;;5033206;28;20466;-88
2022/12/15 08:46:35;;;;;;;16.23;8.40;;;-8.20;99.90;;;;;;5033755;28;20643;-85
2022/12/15 08:49:02;;;;;;;17.60;7.97;;;-8.00;99.90;;;;;;5034311;28;20180;-86
2022/12/15 08:51:29;;;;;;;18.50;9.40;;;-7.80;99.90;;;;;;5051849;28;20224;-86
2022/12/15 08:53:56;;;;;;;17.90;9.77;;;-7.80;99.90;;;;;;5034263;28;20447;-86
2022/12/15 08:56:23;;;;;;;17.53;9.23;;;-7.60;99.90;;;;;;5034298;28;20469;-85
2022/12/15 08:58:55;;;;;;;15.57;9.43;;;-7.40;99.90;;;;;;5034191;28;20404;-85
2022/12/15 09:01:23;;;;;;;15.17;9.60;;;-7.40;99.90;;;;;;5034396;28;20421;-89
2022/12/15 09:03:49;;;;;;;18.63;10.03;;;-7.60;99.90;;;;;;5051879;28;20423;-85
2022/12/15 09:06:18;;;;;;;22.20;9.50;;;-7.40;99.90;;;;;;5052011;28;20539;-85
2022/12/15 09:08:44;;;;;;;66.73;24.70;;;-7.10;99.90;;;;;;5034720;28;20424;-84
2022/12/15 09:11:10;;;;;;;47.90;23.17;;;-6.90;99.90;;;;;;5035028;28;20546;-84
2022/12/15 09:13:35;;;;;;;21.13;11.97;;;-6.70;99.90;;;;;;5038091;28;20227;-85
2022/12/15 09:16:13;;;;;;;20.63;12.27;;;-6.70;99.90;;;;;;5057065;28;20194;-85
2022/12/15 09:18:42;;;;;;;22.10;11.73;;;-6.70;99.90;;;;;;5039254;28;20655;-85
2022/12/15 09:21:08;;;;;;;22.93;12.83;;;-6.50;99.90;;;;;;5056841;28;20926;-85
2022/12/15 09:23:34;;;;;;;22.03;13.47;;;-6.30;99.90;;;;;;5039349;28;20495;-84
2022/12/15 09:26:01;;;;;;;23.40;12.37;;;-6.10;99.90;;;;;;5038620;28;20811;-85
2022/12/15 09:28:28;;;;;;;25.43;13.47;;;-5.90;99.90;;;;;;5039032;28;20506;-85
2022/12/15 09:30:53;;;;;;;26.80;13.63;;;-5.60;99.90;;;;;;5038592;28;20448;-85
2022/12/15 09:33:20;;;;;;;22.87;13.40;;;-5.60;99.90;;;;;;5038269;28;20416;-85
2022/12/15 09:35:50;;;;;;;24.43;14.27;;;-5.40;99.90;;;;;;5038362;28;20198;-84
2022/12/15 09:38:15;;;;;;;22.37;12.97;;;-5.40;99.90;;;;;;5038654;28;20414;-85
2022/12/15 09:40:41;;;;;;;24.23;14.70;;;-5.30;99.90;;;;;;5038340;28;20423;-84
2022/12/15 09:43:14;;;;;;;23.03;13.53;;;-5.10;99.90;;;;;;5037802;28;20185;-85
2022/12/15 09:45:46;;;;;;;23.70;13.13;;;-4.80;99.90;;;;;;5038144;28;20205;-85
2022/12/15 09:48:17;;;;;;;21.37;11.20;;;-4.40;99.90;;;;;;5038081;28;20547;-85
2022/12/15 09:50:46;;;;;;;23.43;12.73;;;-4.30;99.90;;;;;;5037636;28;20563;-85
2022/12/15 09:53:15;;;;;;;22.43;13.10;;;-4.10;99.90;;;;;;5037431;28;20423;-84
2022/12/15 09:55:44;;;;;;;23.40;12.97;;;-4.00;99.90;;;;;;5037326;28;20519;-85
2022/12/15 09:58:41;;;;;;;28.83;15.47;;;-3.90;99.90;;;;;;5055009;28;20500;-84
2022/12/15 10:01:43;;;;;;;24.80;14.93;;;-3.80;99.90;;;;;;5037415;28;20417;-85
2022/12/15 10:04:29;;;;;;;28.37;16.00;;;-4.00;99.90;;;;;;5036352;28;20409;-84
2022/12/15 10:07:19;;;;;;;24.57;13.93;;;-3.90;99.90;;;;;;5054977;28;20453;-89
2022/12/15 10:09:45;;;;;;;26.80;14.30;;;-3.90;99.90;;;;;;5037262;28;20446;-84
2022/12/15 10:12:32;;;;;;;22.40;12.87;;;-4.10;99.90;;;;;;5054933;28;20413;-85
2022/12/15 10:15:03;;;;;;;22.77;13.10;;;-3.90;99.90;;;;;;5037518;28;20164;-86
2022/12/15 10:17:51;;;;;;;24.60;13.50;;;-3.80;99.90;;;;;;5055422;28;20394;-84
2022/12/15 10:20:23;;;;;;;23.87;13.57;;;-3.40;99.90;;;;;;5037159;28;20401;-85
2022/12/15 10:22:50;;;;;;;28.70;15.03;;;-3.00;99.90;;;;;;5036894;28;20442;-85
2022/12/15 10:25:26;;;;;;;26.93;14.47;;;-2.90;99.90;;;;;;5034525;28;20447;-84
2022/12/15 10:28:05;;;;;;;26.87;13.97;;;-2.90;99.90;;;;;;5025992;28;20434;-83
2022/12/15 10:30:30;;;;;;;28.93;15.77;;;-3.00;99.90;;;;;;5036642;28;20508;-85
2022/12/15 10:33:18;;;;;;;26.60;14.73;;;-3.00;99.90;;;;;;5054507;28;20871;-87
2022/12/15 10:35:44;;;;;;;29.40;15.17;;;-3.00;99.90;;;;;;5054196;28;20194;-84
2022/12/15 10:38:36;;;;;;;27.80;14.90;;;-3.00;99.90;;;;;;5054371;28;20209;-83
2022/12/15 10:41:06;;;;;;;28.03;15.00;;;-3.00;99.90;;;;;;5054660;28;20180;-84
2022/12/15 10:43:36;;;;;;;24.13;13.93;;;-3.00;99.90;;;;;;5036413;28;20416;-84
2022/12/15 10:46:14;;;;;;;25.80;14.60;;;-3.00;99.90;;;;;;5054203;28;20446;-84
2022/12/15 10:48:41;;;;;;;25.27;14.97;;;-2.60;99.90;;;;;;5054605;28;20412;-84
2022/12/15 10:51:12;;;;;;;28.93;15.87;;;-2.30;99.90;;;;;;5054236;28;20965;-85
2022/12/15 10:53:53;;;;;;;28.23;16.40;;;-2.10;99.90;;;;;;5036416;28;20183;-85
2022/12/15 10:56:25;;;;;;;25.30;15.30;;;-2.10;99.90;;;;;;5054580;28;20196;-85
2022/12/15 10:58:59;;;;;;;23.97;14.47;;;-2.40;99.90;;;;;;5055517;28;20686;-87
2022/12/15 11:01:28;;;;;;;25.30;13.83;;;-1.80;99.90;;;;;;5038240;28;20169;-84
2022/12/15 11:03:55;;;;;;;30.43;16.47;;;-0.60;99.90;;;;;;5047905;28;20178;-82
2022/12/15 11:06:21;;;;;;;28.43;15.57;;;0.10;99.90;;;;;;5060485;28;20205;-82
2022/12/15 11:08:48;;;;;;;28.13;16.27;;;0.20;99.90;;;;;;5040089;28;20174;-87
2022/12/15 11:14:23;;;;;;;17.63;10.87;;;-0.50;99.90;;;;;;5054157;28;20231;-88
2022/12/15 11:16:54;;;;;;;24.93;14.83;;;3.00;99.90;;;;;;5053803;28;20667;-87
2022/12/15 11:19:42;;;;;;;21.67;13.60;;;5.00;99.90;;;;;;5053742;28;20178;-84
2022/12/15 11:22:17;;;;;;;21.83;13.93;;;4.70;99.90;;;;;;5054952;28;20177;-82
2022/12/15 11:24:52;;;;;;;21.00;13.80;;;3.60;99.90;;;;;;5056587;28;20181;-84
2022/12/15 11:27:37;;;;;;;22.73;13.43;;;2.40;99.90;;;;;;5037533;28;20614;-82
2022/12/15 11:30:09;;;;;;;19.50;13.60;;;1.40;99.90;;;;;;5056306;28;20206;-82
2022/12/15 11:32:37;;;;;;;20.30;13.23;;;1.10;99.90;;;;;;5038040;28;20255;-82
2022/12/15 11:35:05;;;;;;;21.07;12.63;;;0.90;99.90;;;;;;5037297;28;20172;-83
2022/12/15 11:37:45;;;;;;;20.87;13.27;;;0.60;99.90;;;;;;5037737;28;20734;-82
2022/12/15 11:40:30;;;;;;;22.47;13.90;;;0.20;99.90;;;;;;5056046;28;20173;-85
2022/12/15 11:43:33;;;;;;;21.40;13.57;;;0.10;99.90;;;;;;5037842;28;20173;-83
2022/12/15 11:46:18;;;;;;;21.40;13.00;;;0.30;99.90;;;;;;5055830;28;20603;-82
2022/12/15 11:48:58;;;;;;;23.50;13.40;;;0.50;99.90;;;;;;5057007;28;20173;-82
2022/12/15 11:51:35;;;;;;;19.80;12.87;;;0.90;99.90;;;;;;5055668;28;20205;-83
2022/12/15 11:54:27;;;;;;;21.00;12.63;;;1.10;99.90;;;;;;5037474;28;20169;-82
2022/12/15 11:57:01;;;;;;;20.87;11.93;;;1.30;99.90;;;;;;5056914;28;20668;-82
2022/12/15 11:59:41;;;;;;;21.67;12.27;;;1.70;99.90;;;;;;5037485;28;20177;-83
2022/12/15 12:02:25;;;;;;;19.60;11.30;;;2.00;99.90;;;;;;5055244;28;20162;-82
2022/12/15 12:05:18;;;;;;;17.33;11.23;;;2.10;99.90;;;;;;5037079;28;20177;-82
2022/12/15 12:07:47;;;;;;;17.10;11.10;;;2.10;99.90;;;;;;5036922;28;20178;-82
2022/12/15 12:10:25;;;;;;;18.00;12.00;;;2.30;99.90;;;;;;5037505;28;20204;-82
2022/12/15 12:13:02;;;;;;;17.47;11.83;;;2.20;99.90;;;;;;5037391;28;20201;-83
2022/12/15 12:15:49;;;;;;;15.90;10.83;;;2.10;99.90;;;;;;5055714;28;20192;-82
2022/12/15 12:18:26;;;;;;;16.93;10.77;;;2.10;99.90;;;;;;5036613;28;20157;-82
2022/12/15 12:20:59;;;;;;;19.67;12.20;;;2.30;99.90;;;;;;5054563;28;20197;-82
2022/12/15 12:23:47;;;;;;;19.33;12.13;;;2.10;99.90;;;;;;5054969;28;20181;-83
2022/12/15 12:26:28;;;;;;;18.63;11.20;;;1.90;99.90;;;;;;5036334;28;20194;-81
2022/12/15 12:28:58;;;;;;;20.70;12.27;;;1.90;99.90;;;;;;5037261;28;20208;-82
2022/12/15 12:31:41;;;;;;;19.10;11.77;;;2.20;99.90;;;;;;5054519;28;20201;-83
2022/12/15 12:34:16;;;;;;;17.77;11.90;;;2.60;99.90;;;;;;5036086;28;20170;-81
2022/12/15 12:36:43;;;;;;;17.93;12.77;;;3.10;99.90;;;;;;5036126;28;20223;-82
2022/12/15 12:39:19;;;;;;;20.43;12.23;;;3.10;99.90;;;;;;5055340;28;20177;-83
2022/12/15 12:41:58;;;;;;;21.37;13.63;;;3.10;99.90;;;;;;5036328;28;20185;-82
2022/12/15 12:44:34;;;;;;;20.93;13.97;;;3.10;99.90;;;;;;5036303;28;20179;-84
2022/12/15 12:47:15;;;;;;;20.07;13.07;;;3.30;99.90;;;;;;5035588;28;20202;-82
2022/12/15 12:49:52;;;;;;;21.27;13.07;;;3.30;99.90;;;;;;5053780;28;20181;-82
2022/12/15 12:52:30;;;;;;;23.30;14.50;;;3.40;99.90;;;;;;5053926;28;20170;-83
2022/12/15 12:55:23;;;;;;;23.60;14.00;;;3.30;99.90;;;;;;5035554;28;20241;-82
2022/12/15 12:57:48;;;;;;;24.13;15.43;;;2.90;99.90;;;;;;5036404;28;20178;-83
2022/12/15 13:00:23;;;;;;;23.40;15.10;;;2.70;99.90;;;;;;5035847;28;20178;-82
2022/12/15 13:03:07;;;;;;;23.37;14.97;;;2.80;99.90;;;;;;5035812;28;20178;-83
2022/12/15 13:05:36;;;;;;;21.50;13.27;;;2.90;99.90;;;;;;5053718;28;20206;-81
2022/12/15 13:08:05;;;;;;;21.60;14.30;;;3.00;99.90;;;;;;5060944;22;20253;-83
2022/12/15 13:10:33;;;;;;;22.60;14.50;;;2.70;99.90;;;;;;5039609;28;20584;-83
2022/12/15 13:13:14;;;;;;;20.97;14.40;;;2.30;99.90;;;;;;5056891;28;20174;-82
2022/12/15 13:15:46;;;;;;;21.57;14.23;;;1.90;99.90;;;;;;5036649;28;20218;-80
2022/12/15 13:18:19;;;;;;;20.20;13.67;;;1.60;99.90;;;;;;5030878;28;20191;-81
2022/12/15 13:20:47;;;;;;;22.30;13.27;;;1.40;99.90;;;;;;5048414;28;20588;-81
2022/12/15 13:23:19;;;;;;;22.03;13.80;;;1.10;99.90;;;;;;5046827;28;20579;-81
2022/12/15 13:26:05;;;;;;;21.33;14.07;;;1.10;99.90;;;;;;5036204;28;20675;-81
2022/12/15 13:28:43;;;;;;;23.43;14.40;;;1.50;99.90;;;;;;5019668;28;20272;-83
2022/12/15 13:31:17;;;;;;;21.80;13.83;;;1.50;99.90;;;;;;5055900;28;20572;-84
2022/12/15 13:33:44;;;;;;;23.80;13.70;;;1.40;99.90;;;;;;5038244;28;20196;-84
2022/12/15 13:36:09;;;;;;;22.83;14.37;;;1.30;99.90;;;;;;5040621;28;20174;-85
2022/12/15 13:38:54;;;;;;;21.83;13.83;;;1.10;99.90;;;;;;5042708;28;20181;-86
2022/12/15 13:41:23;;;;;;;22.97;14.20;;;0.80;99.90;;;;;;5042140;28;20181;-85
2022/12/15 13:43:52;;;;;;;20.57;14.17;;;0.40;99.90;;;;;;5041422;28;20178;-85
2022/12/15 13:46:23;;;;;;;22.33;13.17;;;0.10;99.90;;;;;;5059602;28;20181;-85
2022/12/15 13:49:12;;;;;;;22.73;14.30;;;-0.20;99.90;;;;;;5042748;28;20182;-85
2022/12/15 13:51:42;;;;;;;20.70;13.63;;;-0.30;99.90;;;;;;5060994;28;20626;-85
2022/12/15 13:54:08;;;;;;;22.67;14.67;;;-0.50;99.90;;;;;;5059999;28;20180;-84
2022/12/15 13:57:03;;;;;;;22.33;14.20;;;-0.70;99.90;;;;;;5051630;28;20254;-84
2022/12/15 13:59:32;;;;;;;22.33;14.73;;;-0.80;99.90;;;;;;5054140;28;20173;-84
2022/12/15 14:01:59;;;;;;;23.40;14.40;;;-0.90;99.90;;;;;;5037533;28;20178;-84
2022/12/15 14:04:25;;;;;;;22.77;14.03;;;-0.90;99.90;;;;;;5037446;28;20180;-84
2022/12/15 14:07:01;;;;;;;23.63;14.03;;;-0.90;99.90;;;;;;5055278;28;20262;-84
2022/12/15 14:09:31;;;;;;;23.67;14.27;;;-1.00;99.90;;;;;;5055387;28;20183;-84
2022/12/15 14:11:57;;;;;;;23.07;14.10;;;-1.10;99.90;;;;;;5037428;28;20188;-84
2022/12/15 14:14:27;;;;;;;24.00;14.93;;;-1.30;99.90;;;;;;5037357;28;20210;-84
2022/12/15 14:17:16;;;;;;;21.00;13.50;;;-1.40;99.90;;;;;;5055834;28;20202;-84
2022/12/15 14:19:44;;;;;;;18.63;12.67;;;-1.50;99.90;;;;;;5036939;28;20602;-84
2022/12/15 14:22:24;;;;;;;20.60;12.80;;;-1.60;99.90;;;;;;5037038;28;20213;-82
2022/12/15 14:24:52;;;;;;;21.93;13.83;;;-1.60;99.90;;;;;;5037198;28;20222;-84
2022/12/15 14:27:26;;;;;;;20.83;12.43;;;-1.60;99.90;;;;;;5037338;28;20192;-84
2022/12/15 14:30:13;;;;;;;20.20;11.70;;;-1.70;99.90;;;;;;5037187;28;20203;-84
2022/12/15 14:32:40;;;;;;;19.83;12.17;;;-1.80;99.90;;;;;;5037408;28;20179;-84
2022/12/15 14:35:15;;;;;;;18.80;12.23;;;-1.80;99.90;;;;;;5037060;28;20429;-84
2022/12/15 14:37:42;;;;;;;22.73;13.77;;;-1.90;99.90;;;;;;5037285;28;20199;-84
2022/12/15 14:40:16;;;;;;;18.93;11.67;;;-2.00;99.90;;;;;;5055141;28;20168;-84
2022/12/15 14:42:43;;;;;;;20.60;13.03;;;-2.10;99.90;;;;;;5054980;28;20550;-84
2022/12/15 14:45:29;;;;;;;20.77;12.90;;;-2.20;99.90;;;;;;5037300;28;20174;-84
2022/12/15 14:48:07;;;;;;;22.17;13.07;;;-2.40;99.90;;;;;;5037256;28;20201;-84
2022/12/15 14:50:34;;;;;;;19.70;12.20;;;-2.50;99.90;;;;;;5055162;28;20213;-84
2022/12/15 14:53:12;;;;;;;18.40;12.83;;;-2.60;99.90;;;;;;5055108;28;20175;-83
2022/12/15 14:55:38;;;;;;;27.30;16.40;;;-2.70;99.90;;;;;;5037089;28;20174;-84
2022/12/15 14:58:25;;;;;;;23.13;13.93;;;-2.70;99.90;;;;;;5037671;28;20247;-84
2022/12/15 15:00:53;;;;;;;27.90;15.87;;;-2.80;99.90;;;;;;5055247;28;20173;-84
2022/12/15 15:03:46;;;;;;;28.30;15.70;;;-2.80;99.90;;;;;;5037022;28;20178;-83
2022/12/15 15:06:11;;;;;;;18.03;11.53;;;-2.90;99.90;;;;;;5035110;28;20181;-84
2022/12/15 15:08:51;;;;;;;18.23;11.67;;;-3.10;99.90;;;;;;5054996;28;20177;-84
2022/12/15 15:11:28;;;;;;;21.00;11.63;;;-3.30;99.90;;;;;;5054887;28;20739;-83
2022/12/15 15:14:12;;;;;;;19.80;12.43;;;-3.40;99.90;;;;;;5055373;28;20166;-84
2022/12/15 15:16:38;;;;;;;24.40;13.97;;;-3.40;99.90;;;;;;5055190;28;20194;-84
2022/12/15 15:19:04;;;;;;;19.47;12.67;;;-3.40;99.90;;;;;;5055697;28;20177;-83